Terminal Aerodrome Forecast
Issued by NWS

Home | Current Version | Previous Version | Text Only | Print | Product List | Glossary On
Versions: 1 2 3 4 5 6 7 8 9 10 11 12 13 14 15 16 17 18 19
000
FTUS43 KEAX 202300
TAFSTJ
TAF
KSTJ 202321Z 2100/2124 20005KT P6SM OVC025
     FM211400 18010KT 2SM BR OVC007
     FM211700 19012KT 5SM BR OVC012=

USA.gov is the U.S. government's official web portal to all federal, state and local government web resources and services.